METAR AND TAF INFORMATION
METAR FOR PAFA
ADDS - METARS form results

(0119 UTC 27 November 2022)
Data provider http://aviationweather.gov/metar/data/
 
METAR text: PAFA 270105Z 00000KT 4SM -SN BR FEW006 SCT020 BKN050 M10/M12 A3021 RMK AO2 P0000 T11001122 $
Conditions at: PAFA (FAIRBANKS , AK, US) observed 0105 UTC 27 November 2022
Temperature: -10.0°C (14°F)
Dewpoint: -12.2°C (10°F) [RH = 84%]
Pressure (altimeter): 30.21 inches Hg (1023.1 mb)
Winds: calm
Visibility: 4 miles ( 6 km)
Ceiling: 5000 feet AGL
Clouds: few clouds at 600 feet AGL
scattered clouds at 2000 feet AGL
broken clouds at 5000 feet AGL
Weather: -SN BR  (light snow, mist)
SOME DATA ABOVE MAY BE INACCURATE!!!
"$" is an indication the sensor requires maintenance

METAR text: PAFA 270053Z 00000KT 2SM -SN BR SCT006 BKN015 OVC040 M10/M12 A3020 RMK AO2 SLP240 P0000 T11001122 $
Conditions at: PAFA (FAIRBANKS , AK, US) observed 0053 UTC 27 November 2022
Temperature: -10.0°C (14°F)
Dewpoint: -12.2°C (10°F) [RH = 84%]
Pressure (altimeter): 30.20 inches Hg (1022.8 mb)
[Sea-level pressure: 1024.0 mb]
Winds: calm
Visibility: 2.00 miles (3.22 km)
Ceiling: 1500 feet AGL
Clouds: scattered clouds at 600 feet AGL
broken clouds at 1500 feet AGL
overcast cloud deck at 4000 feet AGL
Weather: -SN BR  (light snow, mist)
SOME DATA ABOVE MAY BE INACCURATE!!!
"$" is an indication the sensor requires maintenance

METAR text: PAFA 270040Z 00000KT 2SM -SN BR SCT006 BKN015 OVC040 M10/M12 A3020 RMK AO2 P0000 T11001122 $
Conditions at: PAFA (FAIRBANKS , AK, US) observed 0040 UTC 27 November 2022
Temperature: -10.0°C (14°F)
Dewpoint: -12.2°C (10°F) [RH = 84%]
Pressure (altimeter): 30.20 inches Hg (1022.8 mb)
Winds: calm
Visibility: 2.00 miles (3.22 km)
Ceiling: 1500 feet AGL
Clouds: scattered clouds at 600 feet AGL
broken clouds at 1500 feet AGL
overcast cloud deck at 4000 feet AGL
Weather: -SN BR  (light snow, mist)
SOME DATA ABOVE MAY BE INACCURATE!!!
"$" is an indication the sensor requires maintenance

METAR text: PAFA 270021Z 00000KT 1 1/2SM -SN BR SCT006 BKN015 OVC036 M10/M13 A3019 RMK AO2 P0000 T11001128 $
Conditions at: PAFA (FAIRBANKS , AK, US) observed 0021 UTC 27 November 2022
Temperature: -10.0°C (14°F)
Dewpoint: -12.8°C ( 9°F) [RH = 80%]
Pressure (altimeter): 30.19 inches Hg (1022.4 mb)
Winds: calm
Visibility: 1.50 miles (2.41 km)
Ceiling: 1500 feet AGL
Clouds: scattered clouds at 600 feet AGL
broken clouds at 1500 feet AGL
overcast cloud deck at 3600 feet AGL
Weather: -SN BR  (light snow, mist)
SOME DATA ABOVE MAY BE INACCURATE!!!
"$" is an indication the sensor requires maintenance

Forecast for: PAFA (FAIRBANKS , AK, US)
Text: PAFA 270027Z 2700/2806 VRB03KT 2SM -SN BR SCT006 BKN015 OVC030
Forecast period: 0000 to 1600 UTC 27 November 2022
Forecast type: FROM: standard forecast or significant change
Winds: variable direction winds at 3 MPH (3 knots; 1.5 m/s)
Visibility: 2.00 miles (3.22 km)
Ceiling: 1500 feet AGL
Clouds: scattered clouds at 600 feet AGL
broken clouds at 1500 feet AGL
overcast cloud deck at 3000 feet AGL
Weather: -SN BR  (light snow, mist)
Text: FM271600 VRB03KT 4SM -SN BR BKN015 OVC025
Forecast period: 1600 to 2000 UTC 27 November 2022
Forecast type: FROM: standard forecast or significant change
Winds: variable direction winds at 3 MPH (3 knots; 1.5 m/s)
Visibility: 4 miles (6 km)
Ceiling: 1500 feet AGL
Clouds: broken clouds at 1500 feet AGL
overcast cloud deck at 2500 feet AGL
Weather: -SN BR  (light snow, mist)
Text: FM272000 VRB02KT P6SM BKN035 OVC050
Forecast period: 2000 UTC 27 November 2022 to 0600 UTC 28 November 2022
Forecast type: FROM: standard forecast or significant change
Winds: variable direction winds at 2 MPH (2 knots; 1.0 m/s)
Visibility: 6 or more miles (10+ km)
Ceiling: 3500 feet AGL
Clouds: broken clouds at 3500 feet AGL
overcast cloud deck at 5000 feet AGL
Weather: no significant weather forecast for this period

 AIRPORT MAP

 RUNWAY INFORMATION
Runway 02 Runway length 2900 ft Runway width 75 ft
Runway elevation 433 ft Runway displaced threshold 0 ft Runway heading 38
Runway 20 Runway length 2900 ft Runway width 75 ft
Runway elevation 434 ft Runway displaced threshold 0 ft Runway heading 218
Runway 02L Runway length 11800 ft Runway width 150 ft
Runway elevation 431 ft Runway displaced threshold 0 ft Runway heading 38
Runway 20R Runway length 11800 ft Runway width 150 ft
Runway elevation 434 ft Runway displaced threshold 0 ft Runway heading 218
Runway 02R Runway length 6501 ft Runway width 100 ft
Runway elevation 433 ft Runway displaced threshold 0 ft Runway heading 38
Runway 20L Runway length 6501 ft Runway width 100 ft
Runway elevation 433 ft Runway displaced threshold 0 ft Runway heading 218
Runway 02W Runway length 5400 ft Runway width 100 ft
Runway elevation 423 ft Runway displaced threshold 0 ft Runway heading 38
Runway 20W Runway length 5400 ft Runway width 100 ft
Runway elevation 423 ft Runway displaced threshold 0 ft Runway heading 218

 AIRPORT FREQUENCIES
Type APP Name APP Frequency 118.6 MHZ
Type ASOS Name ASOS Frequency 119.025 MHZ
Type ATIS Name ATIS Frequency 124.4 MHZ
Type AWOS Name TWEB Frequency 108.2 MHZ
Type CLD Name CLNC DEL Frequency 127.6 MHZ
Type DEP Name DEP Frequency 32.71 MHZ
Type FSS Name RDO Frequency 122.6 MHZ
Type GND Name GND Frequency 121.9 MHZ
Type MISC Name EIELSON RA Frequency 125.3 MHZ
Type TWR Name TWR Frequency 118.3 MHZ
Type UNIC Name UNICOM Frequency 122.95 MHZ

 AIRPORT NEAR NAVIGATION AIDS
Type NDB Name Wearr Frequency 510 KHZ
Type VORTAC Name Fairbanks Frequency 108600 KHZ
Type NDB Name Fox Frequency 356 KHZ